Archival Weather

Agadez

Agadez, Niger (DRZA)

Report from: Thursday, September 21, 2023 7:00 AM WAT
Current time: Friday, February 23, 2024 8:34 PM WAT

Current weather – Weather history – Daily summaries
Weather forecast

Temperature26.0°C (78.8°F)
Dew point10.0°C (50.0°F)
Winds 5 kts (2.6 m/s, 5.8 mph) Southeast (140°)
Clouds Sky clear
Altimeter29.91 in.Hg (1013 mB)
Relative humidity37 %
Density altitude1,455 ft. (444 m)
Remarks Ceiling and visibility OK
Flight conditions Visual Meteorological Conditions
Raw dataDRZA 210600Z 14005KT CAVOK 26/10 Q1013
An error has occurred. This application may no longer respond until reloaded. Reload 🗙